Elsberry, Missouri
Current Conditions -  °F | °C
As of 2:54 PM on Saturday 20 Dec 2014 (Local Time) from KSET Reporting Station
Overcast Overcast  
Wind Chill: 36°   Ceiling: 3500
Heat Index: 41°   Visibility: 7mi
Dew Point: 34°   Wind: 7mph
Humidity: 76%   Direction: 150°SSE
Pressure: 30.22"   Gusts: NA
Location:  39.17°N, 90.78°W
Report Text: KSET 202054Z AUTO 15006KT 7SM OVC035 05/01 A3022 RMK AO2 SLP236 T00500011 55009
Loading
Personal Weather Stations






























Interactive Weather Map New forecast layout! Learn more

10-Day Weather Forecast

Advertisements
Track Severe Weather on mobile